sensor_id;sensor_type;location;lat;lon;timestamp;P1;durP1;ratioP1;P2;durP2;ratioP2
65567;SDS011;52211;50.154;8.682;2022-12-07T00:01:53;14.90;;;10.23;;
65567;SDS011;52211;50.154;8.682;2022-12-07T00:04:22;13.10;;;11.07;;
65567;SDS011;52211;50.154;8.682;2022-12-07T00:06:52;14.23;;;11.60;;
65567;SDS011;52211;50.154;8.682;2022-12-07T00:09:21;12.73;;;11.17;;
65567;SDS011;52211;50.154;8.682;2022-12-07T00:11:51;13.77;;;10.97;;
65567;SDS011;52211;50.154;8.682;2022-12-07T00:14:18;12.83;;;10.40;;
65567;SDS011;52211;50.154;8.682;2022-12-07T00:16:49;14.13;;;11.10;;
65567;SDS011;52211;50.154;8.682;2022-12-07T00:19:22;14.77;;;11.23;;
65567;SDS011;52211;50.154;8.682;2022-12-07T00:21:49;16.27;;;11.43;;
65567;SDS011;52211;50.154;8.682;2022-12-07T00:24:18;14.77;;;10.60;;
65567;SDS011;52211;50.154;8.682;2022-12-07T00:26:45;11.43;;;9.60;;
65567;SDS011;52211;50.154;8.682;2022-12-07T00:29:16;12.30;;;10.83;;
65567;SDS011;52211;50.154;8.682;2022-12-07T00:31:46;13.20;;;9.93;;
65567;SDS011;52211;50.154;8.682;2022-12-07T00:34:19;13.40;;;10.47;;
65567;SDS011;52211;50.154;8.682;2022-12-07T00:36:52;13.57;;;10.50;;
65567;SDS011;52211;50.154;8.682;2022-12-07T00:39:21;12.20;;;10.50;;
65567;SDS011;52211;50.154;8.682;2022-12-07T00:41:47;13.50;;;9.90;;
65567;SDS011;52211;50.154;8.682;2022-12-07T00:44:16;11.93;;;10.33;;
65567;SDS011;52211;50.154;8.682;2022-12-07T00:46:47;14.50;;;11.33;;
65567;SDS011;52211;50.154;8.682;2022-12-07T00:49:14;13.77;;;9.80;;
65567;SDS011;52211;50.154;8.682;2022-12-07T00:51:49;11.73;;;9.60;;
65567;SDS011;52211;50.154;8.682;2022-12-07T00:54:20;14.93;;;11.80;;
65567;SDS011;52211;50.154;8.682;2022-12-07T00:56:57;12.67;;;10.07;;
65567;SDS011;52211;50.154;8.682;2022-12-07T00:59:26;12.33;;;10.70;;
65567;SDS011;52211;50.154;8.682;2022-12-07T01:01:53;13.97;;;10.70;;
65567;SDS011;52211;50.154;8.682;2022-12-07T01:04:22;14.33;;;10.23;;
65567;SDS011;52211;50.154;8.682;2022-12-07T01:06:51;11.83;;;9.27;;
65567;SDS011;52211;50.154;8.682;2022-12-07T01:09:18;11.70;;;9.60;;
65567;SDS011;52211;50.154;8.682;2022-12-07T01:11:47;12.47;;;10.43;;
65567;SDS011;52211;50.154;8.682;2022-12-07T01:14:16;14.03;;;10.87;;
65567;SDS011;52211;50.154;8.682;2022-12-07T01:16:43;12.50;;;10.00;;
65567;SDS011;52211;50.154;8.682;2022-12-07T01:19:10;13.30;;;10.50;;
65567;SDS011;52211;50.154;8.682;2022-12-07T01:21:39;11.70;;;9.73;;
65567;SDS011;52211;50.154;8.682;2022-12-07T01:24:10;11.87;;;10.17;;
65567;SDS011;52211;50.154;8.682;2022-12-07T01:26:37;10.87;;;9.47;;
65567;SDS011;52211;50.154;8.682;2022-12-07T01:29:07;11.87;;;9.90;;
65567;SDS011;52211;50.154;8.682;2022-12-07T01:31:34;11.43;;;9.93;;
65567;SDS011;52211;50.154;8.682;2022-12-07T01:34:04;11.33;;;9.73;;
65567;SDS011;52211;50.154;8.682;2022-12-07T01:36:35;12.30;;;10.10;;
65567;SDS011;52211;50.154;8.682;2022-12-07T01:39:05;13.60;;;10.07;;
65567;SDS011;52211;50.154;8.682;2022-12-07T01:41:40;13.30;;;9.47;;
65567;SDS011;52211;50.154;8.682;2022-12-07T01:44:23;11.27;;;9.10;;
65567;SDS011;52211;50.154;8.682;2022-12-07T01:47:01;11.53;;;8.90;;
65567;SDS011;52211;50.154;8.682;2022-12-07T01:49:31;14.00;;;10.37;;
65567;SDS011;52211;50.154;8.682;2022-12-07T01:54:59;13.20;;;9.67;;
65567;SDS011;52211;50.154;8.682;2022-12-07T01:57:37;14.97;;;10.27;;
65567;SDS011;52211;50.154;8.682;2022-12-07T02:00:12;15.03;;;10.10;;
65567;SDS011;52211;50.154;8.682;2022-12-07T02:02:53;12.83;;;10.20;;
65567;SDS011;52211;50.154;8.682;2022-12-07T02:05:49;12.93;;;8.70;;
65567;SDS011;52211;50.154;8.682;2022-12-07T02:08:17;10.13;;;8.60;;
65567;SDS011;52211;50.154;8.682;2022-12-07T02:10:45;11.43;;;10.20;;
65567;SDS011;52211;50.154;8.682;2022-12-07T02:13:16;11.93;;;9.57;;
65567;SDS011;52211;50.154;8.682;2022-12-07T02:24:54;10.70;;;8.73;;
65567;SDS011;52211;50.154;8.682;2022-12-07T02:28:04;11.47;;;8.80;;
65567;SDS011;52211;50.154;8.682;2022-12-07T02:30:47;12.27;;;9.03;;
65567;SDS011;52211;50.154;8.682;2022-12-07T02:36:21;10.17;;;8.33;;
65567;SDS011;52211;50.154;8.682;2022-12-07T02:39:05;16.27;;;9.03;;
65567;SDS011;52211;50.154;8.682;2022-12-07T02:41:47;12.77;;;8.80;;
65567;SDS011;52211;50.154;8.682;2022-12-07T02:44:24;9.50;;;8.37;;
65567;SDS011;52211;50.154;8.682;2022-12-07T02:47:03;10.77;;;9.20;;
65567;SDS011;52211;50.154;8.682;2022-12-07T02:49:38;11.97;;;8.40;;
65567;SDS011;52211;50.154;8.682;2022-12-07T02:52:06;10.17;;;8.73;;
65567;SDS011;52211;50.154;8.682;2022-12-07T02:54:36;10.07;;;8.40;;
65567;SDS011;52211;50.154;8.682;2022-12-07T02:57:21;10.40;;;8.43;;
65567;SDS011;52211;50.154;8.682;2022-12-07T03:00:17;9.53;;;7.63;;
65567;SDS011;52211;50.154;8.682;2022-12-07T03:02:51;12.10;;;8.73;;
65567;SDS011;52211;50.154;8.682;2022-12-07T03:14:29;13.27;;;9.53;;
65567;SDS011;52211;50.154;8.682;2022-12-07T03:17:10;10.27;;;8.53;;
65567;SDS011;52211;50.154;8.682;2022-12-07T03:19:48;11.83;;;7.97;;
65567;SDS011;52211;50.154;8.682;2022-12-07T03:22:19;12.47;;;8.37;;
65567;SDS011;52211;50.154;8.682;2022-12-07T03:24:52;9.13;;;7.33;;
65567;SDS011;52211;50.154;8.682;2022-12-07T03:27:28;10.07;;;8.27;;
65567;SDS011;52211;50.154;8.682;2022-12-07T03:30:17;11.20;;;7.83;;
65567;SDS011;52211;50.154;8.682;2022-12-07T03:38:25;9.50;;;7.60;;
65567;SDS011;52211;50.154;8.682;2022-12-07T03:41:05;8.40;;;6.87;;
65567;SDS011;52211;50.154;8.682;2022-12-07T03:43:45;10.80;;;7.97;;
65567;SDS011;52211;50.154;8.682;2022-12-07T03:49:38;9.63;;;8.10;;
65567;SDS011;52211;50.154;8.682;2022-12-07T03:57:33;9.23;;;6.47;;
65567;SDS011;52211;50.154;8.682;2022-12-07T04:00:06;9.27;;;7.00;;
65567;SDS011;52211;50.154;8.682;2022-12-07T04:02:41;11.47;;;6.87;;
65567;SDS011;52211;50.154;8.682;2022-12-07T04:05:13;9.30;;;7.87;;
65567;SDS011;52211;50.154;8.682;2022-12-07T04:07:44;9.67;;;7.60;;
65567;SDS011;52211;50.154;8.682;2022-12-07T04:10:11;7.67;;;6.70;;
65567;SDS011;52211;50.154;8.682;2022-12-07T04:12:41;8.53;;;7.10;;
65567;SDS011;52211;50.154;8.682;2022-12-07T04:15:08;8.43;;;7.53;;
65567;SDS011;52211;50.154;8.682;2022-12-07T04:17:40;7.80;;;6.87;;
65567;SDS011;52211;50.154;8.682;2022-12-07T04:20:07;8.60;;;7.50;;
65567;SDS011;52211;50.154;8.682;2022-12-07T04:22:37;8.07;;;7.07;;
65567;SDS011;52211;50.154;8.682;2022-12-07T04:25:04;9.03;;;6.77;;
65567;SDS011;52211;50.154;8.682;2022-12-07T04:27:34;7.93;;;7.13;;
65567;SDS011;52211;50.154;8.682;2022-12-07T04:30:06;8.73;;;6.63;;
65567;SDS011;52211;50.154;8.682;2022-12-07T04:32:34;9.63;;;7.07;;
65567;SDS011;52211;50.154;8.682;2022-12-07T04:35:01;8.80;;;7.83;;
65567;SDS011;52211;50.154;8.682;2022-12-07T04:37:29;9.43;;;7.50;;
65567;SDS011;52211;50.154;8.682;2022-12-07T04:39:56;12.13;;;7.47;;
65567;SDS011;52211;50.154;8.682;2022-12-07T04:42:28;9.90;;;7.70;;
65567;SDS011;52211;50.154;8.682;2022-12-07T04:45:00;8.27;;;6.90;;
65567;SDS011;52211;50.154;8.682;2022-12-07T04:47:29;9.07;;;7.60;;
65567;SDS011;52211;50.154;8.682;2022-12-07T04:49:59;7.93;;;6.67;;
65567;SDS011;52211;50.154;8.682;2022-12-07T04:52:28;8.90;;;6.50;;
65567;SDS011;52211;50.154;8.682;2022-12-07T04:54:55;8.63;;;6.87;;
65567;SDS011;52211;50.154;8.682;2022-12-07T04:57:22;7.70;;;6.90;;
65567;SDS011;52211;50.154;8.682;2022-12-07T04:59:49;9.37;;;8.40;;
65567;SDS011;52211;50.154;8.682;2022-12-07T05:02:16;7.40;;;6.70;;
65567;SDS011;52211;50.154;8.682;2022-12-07T05:04:47;9.70;;;7.63;;
65567;SDS011;52211;50.154;8.682;2022-12-07T05:07:17;8.57;;;6.83;;
65567;SDS011;52211;50.154;8.682;2022-12-07T05:09:44;7.50;;;6.70;;
65567;SDS011;52211;50.154;8.682;2022-12-07T05:12:13;8.17;;;7.30;;
65567;SDS011;52211;50.154;8.682;2022-12-07T05:14:39;9.27;;;6.90;;
65567;SDS011;52211;50.154;8.682;2022-12-07T05:17:08;8.43;;;7.43;;
65567;SDS011;52211;50.154;8.682;2022-12-07T05:19:38;7.90;;;7.20;;
65567;SDS011;52211;50.154;8.682;2022-12-07T05:22:10;8.47;;;7.47;;
65567;SDS011;52211;50.154;8.682;2022-12-07T05:24:37;8.93;;;7.20;;
65567;SDS011;52211;50.154;8.682;2022-12-07T05:27:08;8.53;;;7.57;;
65567;SDS011;52211;50.154;8.682;2022-12-07T05:29:35;8.13;;;7.33;;
65567;SDS011;52211;50.154;8.682;2022-12-07T05:32:05;8.43;;;7.00;;
65567;SDS011;52211;50.154;8.682;2022-12-07T05:34:35;9.27;;;7.30;;
65567;SDS011;52211;50.154;8.682;2022-12-07T05:37:05;8.87;;;7.97;;
65567;SDS011;52211;50.154;8.682;2022-12-07T05:39:32;9.57;;;7.40;;
65567;SDS011;52211;50.154;8.682;2022-12-07T05:41:58;8.50;;;7.47;;
65567;SDS011;52211;50.154;8.682;2022-12-07T05:44:38;9.53;;;7.23;;
65567;SDS011;52211;50.154;8.682;2022-12-07T05:47:10;8.60;;;6.87;;
65567;SDS011;52211;50.154;8.682;2022-12-07T05:49:41;10.07;;;7.40;;
65567;SDS011;52211;50.154;8.682;2022-12-07T05:52:09;8.40;;;7.50;;
65567;SDS011;52211;50.154;8.682;2022-12-07T05:54:38;8.93;;;7.70;;
65567;SDS011;52211;50.154;8.682;2022-12-07T05:57:07;7.97;;;7.20;;
65567;SDS011;52211;50.154;8.682;2022-12-07T05:59:34;8.60;;;7.33;;
65567;SDS011;52211;50.154;8.682;2022-12-07T06:02:04;9.20;;;7.47;;
65567;SDS011;52211;50.154;8.682;2022-12-07T06:04:37;8.80;;;7.33;;
65567;SDS011;52211;50.154;8.682;2022-12-07T06:07:08;9.17;;;8.27;;
65567;SDS011;52211;50.154;8.682;2022-12-07T06:09:40;8.07;;;7.23;;
65567;SDS011;52211;50.154;8.682;2022-12-07T06:12:12;8.70;;;7.80;;
65567;SDS011;52211;50.154;8.682;2022-12-07T06:15:00;7.63;;;6.93;;
65567;SDS011;52211;50.154;8.682;2022-12-07T06:17:35;10.17;;;8.63;;
65567;SDS011;52211;50.154;8.682;2022-12-07T06:20:07;11.20;;;7.93;;
65567;SDS011;52211;50.154;8.682;2022-12-07T06:22:34;8.17;;;7.30;;
65567;SDS011;52211;50.154;8.682;2022-12-07T06:25:01;9.07;;;7.73;;
65567;SDS011;52211;50.154;8.682;2022-12-07T06:27:34;10.53;;;8.23;;
65567;SDS011;52211;50.154;8.682;2022-12-07T06:30:04;9.53;;;7.97;;
65567;SDS011;52211;50.154;8.682;2022-12-07T06:32:33;9.30;;;8.27;;
65567;SDS011;52211;50.154;8.682;2022-12-07T06:35:05;8.60;;;7.67;;
65567;SDS011;52211;50.154;8.682;2022-12-07T06:37:37;9.93;;;7.70;;
65567;SDS011;52211;50.154;8.682;2022-12-07T06:40:04;10.50;;;8.03;;
65567;SDS011;52211;50.154;8.682;2022-12-07T06:42:32;9.90;;;8.10;;
65567;SDS011;52211;50.154;8.682;2022-12-07T06:44:59;9.37;;;7.47;;
65567;SDS011;52211;50.154;8.682;2022-12-07T06:47:26;9.57;;;8.43;;
65567;SDS011;52211;50.154;8.682;2022-12-07T06:50:08;8.90;;;7.93;;
65567;SDS011;52211;50.154;8.682;2022-12-07T06:52:41;12.00;;;9.33;;
65567;SDS011;52211;50.154;8.682;2022-12-07T06:55:10;9.50;;;7.90;;
65567;SDS011;52211;50.154;8.682;2022-12-07T06:57:42;10.73;;;8.30;;
65567;SDS011;52211;50.154;8.682;2022-12-07T07:00:11;11.90;;;8.47;;
65567;SDS011;52211;50.154;8.682;2022-12-07T07:02:47;9.67;;;8.67;;
65567;SDS011;52211;50.154;8.682;2022-12-07T07:05:14;9.57;;;7.60;;
65567;SDS011;52211;50.154;8.682;2022-12-07T07:07:49;8.87;;;7.50;;
65567;SDS011;52211;50.154;8.682;2022-12-07T07:10:37;9.40;;;7.93;;
65567;SDS011;52211;50.154;8.682;2022-12-07T07:13:07;10.13;;;8.03;;
65567;SDS011;52211;50.154;8.682;2022-12-07T07:15:34;8.50;;;7.47;;
65567;SDS011;52211;50.154;8.682;2022-12-07T07:18:07;9.73;;;8.73;;
65567;SDS011;52211;50.154;8.682;2022-12-07T07:20:36;11.07;;;8.67;;
65567;SDS011;52211;50.154;8.682;2022-12-07T07:23:03;10.90;;;8.33;;
65567;SDS011;52211;50.154;8.682;2022-12-07T07:25:33;12.10;;;8.57;;
65567;SDS011;52211;50.154;8.682;2022-12-07T07:28:05;12.00;;;9.03;;
65567;SDS011;52211;50.154;8.682;2022-12-07T07:30:32;12.20;;;8.50;;
65567;SDS011;52211;50.154;8.682;2022-12-07T07:33:00;9.33;;;8.30;;
65567;SDS011;52211;50.154;8.682;2022-12-07T07:35:34;9.23;;;8.30;;
65567;SDS011;52211;50.154;8.682;2022-12-07T07:38:05;10.43;;;8.73;;
65567;SDS011;52211;50.154;8.682;2022-12-07T07:40:34;10.77;;;8.47;;
65567;SDS011;52211;50.154;8.682;2022-12-07T07:43:04;11.07;;;8.20;;
65567;SDS011;52211;50.154;8.682;2022-12-07T07:45:30;10.43;;;7.80;;
65567;SDS011;52211;50.154;8.682;2022-12-07T07:47:57;9.20;;;8.20;;
65567;SDS011;52211;50.154;8.682;2022-12-07T07:50:27;10.27;;;8.60;;
65567;SDS011;52211;50.154;8.682;2022-12-07T07:53:00;8.70;;;7.80;;
65567;SDS011;52211;50.154;8.682;2022-12-07T07:55:32;10.63;;;7.97;;
65567;SDS011;52211;50.154;8.682;2022-12-07T07:57:59;9.07;;;8.07;;
65567;SDS011;52211;50.154;8.682;2022-12-07T08:00:26;10.03;;;8.53;;
65567;SDS011;52211;50.154;8.682;2022-12-07T08:02:58;9.80;;;7.40;;
65567;SDS011;52211;50.154;8.682;2022-12-07T08:05:28;9.00;;;7.33;;
65567;SDS011;52211;50.154;8.682;2022-12-07T08:07:57;8.80;;;7.47;;
65567;SDS011;52211;50.154;8.682;2022-12-07T08:10:24;8.80;;;7.80;;
65567;SDS011;52211;50.154;8.682;2022-12-07T08:12:53;8.13;;;7.27;;
65567;SDS011;52211;50.154;8.682;2022-12-07T08:15:44;8.70;;;7.27;;
65567;SDS011;52211;50.154;8.682;2022-12-07T08:18:16;9.07;;;7.97;;
65567;SDS011;52211;50.154;8.682;2022-12-07T08:20:43;11.00;;;8.10;;
65567;SDS011;52211;50.154;8.682;2022-12-07T08:23:13;8.70;;;7.20;;
65567;SDS011;52211;50.154;8.682;2022-12-07T08:25:42;8.70;;;7.47;;
65567;SDS011;52211;50.154;8.682;2022-12-07T08:28:15;9.00;;;8.10;;
65567;SDS011;52211;50.154;8.682;2022-12-07T08:30:45;8.93;;;7.30;;
65567;SDS011;52211;50.154;8.682;2022-12-07T08:33:14;9.00;;;6.83;;
65567;SDS011;52211;50.154;8.682;2022-12-07T08:35:41;8.57;;;7.50;;
65567;SDS011;52211;50.154;8.682;2022-12-07T08:38:08;8.67;;;6.90;;
65567;SDS011;52211;50.154;8.682;2022-12-07T08:40:35;7.93;;;6.43;;
65567;SDS011;52211;50.154;8.682;2022-12-07T08:43:04;8.47;;;6.60;;
65567;SDS011;52211;50.154;8.682;2022-12-07T08:45:35;8.60;;;6.87;;
65567;SDS011;52211;50.154;8.682;2022-12-07T08:48:08;6.93;;;6.23;;
65567;SDS011;52211;50.154;8.682;2022-12-07T08:50:39;7.73;;;7.00;;
65567;SDS011;52211;50.154;8.682;2022-12-07T08:53:15;8.03;;;7.20;;
65567;SDS011;52211;50.154;8.682;2022-12-07T08:55:44;7.40;;;6.70;;
65567;SDS011;52211;50.154;8.682;2022-12-07T08:58:13;7.70;;;6.47;;
65567;SDS011;52211;50.154;8.682;2022-12-07T09:00:42;7.03;;;6.20;;
65567;SDS011;52211;50.154;8.682;2022-12-07T09:03:14;9.67;;;6.57;;
65567;SDS011;52211;50.154;8.682;2022-12-07T09:05:45;6.30;;;5.77;;
65567;SDS011;52211;50.154;8.682;2022-12-07T09:08:16;6.97;;;6.17;;
65567;SDS011;52211;50.154;8.682;2022-12-07T09:10:48;6.80;;;6.03;;
65567;SDS011;52211;50.154;8.682;2022-12-07T09:13:17;6.70;;;6.10;;
65567;SDS011;52211;50.154;8.682;2022-12-07T09:15:46;6.03;;;5.50;;
65567;SDS011;52211;50.154;8.682;2022-12-07T09:18:18;6.20;;;5.70;;
65567;SDS011;52211;50.154;8.682;2022-12-07T09:20:49;5.83;;;5.23;;
65567;SDS011;52211;50.154;8.682;2022-12-07T09:23:21;5.50;;;5.07;;
65567;SDS011;52211;50.154;8.682;2022-12-07T09:25:48;6.50;;;5.90;;
65567;SDS011;52211;50.154;8.682;2022-12-07T09:28:19;6.33;;;5.63;;
65567;SDS011;52211;50.154;8.682;2022-12-07T09:30:46;8.40;;;5.53;;
65567;SDS011;52211;50.154;8.682;2022-12-07T09:33:36;6.67;;;6.03;;
65567;SDS011;52211;50.154;8.682;2022-12-07T09:36:03;6.67;;;6.07;;
65567;SDS011;52211;50.154;8.682;2022-12-07T09:38:33;6.60;;;5.90;;
65567;SDS011;52211;50.154;8.682;2022-12-07T09:41:06;6.53;;;5.93;;
65567;SDS011;52211;50.154;8.682;2022-12-07T09:43:38;6.43;;;5.70;;
65567;SDS011;52211;50.154;8.682;2022-12-07T09:46:09;6.93;;;6.23;;
65567;SDS011;52211;50.154;8.682;2022-12-07T09:48:49;6.57;;;5.97;;
65567;SDS011;52211;50.154;8.682;2022-12-07T09:51:21;6.03;;;5.43;;
65567;SDS011;52211;50.154;8.682;2022-12-07T09:53:57;5.70;;;5.20;;
65567;SDS011;52211;50.154;8.682;2022-12-07T09:56:28;7.17;;;5.60;;
65567;SDS011;52211;50.154;8.682;2022-12-07T09:58:59;6.33;;;5.50;;
65567;SDS011;52211;50.154;8.682;2022-12-07T10:01:33;5.90;;;5.40;;
65567;SDS011;52211;50.154;8.682;2022-12-07T10:04:11;7.80;;;5.73;;
65567;SDS011;52211;50.154;8.682;2022-12-07T10:06:45;6.27;;;5.67;;
65567;SDS011;52211;50.154;8.682;2022-12-07T10:09:20;7.87;;;6.17;;
65567;SDS011;52211;50.154;8.682;2022-12-07T10:11:57;8.73;;;6.37;;
65567;SDS011;52211;50.154;8.682;2022-12-07T10:14:37;6.07;;;5.40;;
65567;SDS011;52211;50.154;8.682;2022-12-07T10:17:40;6.77;;;5.67;;
65567;SDS011;52211;50.154;8.682;2022-12-07T10:20:18;6.20;;;5.60;;
65567;SDS011;52211;50.154;8.682;2022-12-07T10:25:32;5.67;;;4.60;;
65567;SDS011;52211;50.154;8.682;2022-12-07T10:30:34;5.43;;;4.87;;
65567;SDS011;52211;50.154;8.682;2022-12-07T10:33:44;3.90;;;3.60;;
65567;SDS011;52211;50.154;8.682;2022-12-07T10:41:30;4.27;;;3.60;;
65567;SDS011;52211;50.154;8.682;2022-12-07T10:43:57;5.50;;;4.27;;
65567;SDS011;52211;50.154;8.682;2022-12-07T10:58:02;4.73;;;3.33;;
65567;SDS011;52211;50.154;8.682;2022-12-07T11:01:17;3.83;;;3.53;;
65567;SDS011;52211;50.154;8.682;2022-12-07T11:07:14;4.20;;;3.77;;
65567;SDS011;52211;50.154;8.682;2022-12-07T11:19:11;3.50;;;3.20;;
65567;SDS011;52211;50.154;8.682;2022-12-07T11:36:35;4.90;;;3.57;;
65567;SDS011;52211;50.154;8.682;2022-12-07T11:42:04;3.77;;;3.47;;
65567;SDS011;52211;50.154;8.682;2022-12-07T11:47:28;4.07;;;3.83;;
65567;SDS011;52211;50.154;8.682;2022-12-07T11:50:25;4.27;;;3.87;;
65567;SDS011;52211;50.154;8.682;2022-12-07T11:55:32;3.57;;;3.20;;
65567;SDS011;52211;50.154;8.682;2022-12-07T12:07:41;4.70;;;3.20;;
65567;SDS011;52211;50.154;8.682;2022-12-07T12:22:24;5.17;;;2.13;;
65567;SDS011;52211;50.154;8.682;2022-12-07T12:25:06;3.47;;;3.13;;
65567;SDS011;52211;50.154;8.682;2022-12-07T12:27:52;6.27;;;3.37;;
65567;SDS011;52211;50.154;8.682;2022-12-07T12:30:32;3.37;;;2.80;;
65567;SDS011;52211;50.154;8.682;2022-12-07T12:33:24;4.77;;;3.27;;
65567;SDS011;52211;50.154;8.682;2022-12-07T12:39:07;2.93;;;2.60;;
65567;SDS011;52211;50.154;8.682;2022-12-07T12:47:04;3.00;;;2.80;;
65567;SDS011;52211;50.154;8.682;2022-12-07T13:00:46;2.83;;;2.63;;
65567;SDS011;52211;50.154;8.682;2022-12-07T13:03:35;2.23;;;2.03;;
65567;SDS011;52211;50.154;8.682;2022-12-07T13:08:56;2.60;;;2.50;;
65567;SDS011;52211;50.154;8.682;2022-12-07T13:11:39;2.30;;;2.20;;
65567;SDS011;52211;50.154;8.682;2022-12-07T13:19:59;2.30;;;2.20;;
65567;SDS011;52211;50.154;8.682;2022-12-07T13:27:57;2.30;;;2.10;;
65567;SDS011;52211;50.154;8.682;2022-12-07T13:30:40;2.37;;;2.27;;
65567;SDS011;52211;50.154;8.682;2022-12-07T13:33:24;2.60;;;2.20;;
65567;SDS011;52211;50.154;8.682;2022-12-07T13:35:55;2.40;;;2.23;;
65567;SDS011;52211;50.154;8.682;2022-12-07T13:41:04;3.20;;;2.97;;
65567;SDS011;52211;50.154;8.682;2022-12-07T13:43:42;4.47;;;2.40;;
65567;SDS011;52211;50.154;8.682;2022-12-07T13:46:24;3.00;;;2.80;;
65567;SDS011;52211;50.154;8.682;2022-12-07T13:49:26;3.27;;;2.97;;
65567;SDS011;52211;50.154;8.682;2022-12-07T13:52:08;3.40;;;3.10;;
65567;SDS011;52211;50.154;8.682;2022-12-07T13:54:57;2.90;;;2.70;;
65567;SDS011;52211;50.154;8.682;2022-12-07T13:57:37;2.97;;;2.77;;
65567;SDS011;52211;50.154;8.682;2022-12-07T14:00:13;2.70;;;2.50;;
65567;SDS011;52211;50.154;8.682;2022-12-07T14:03:02;2.60;;;2.40;;
65567;SDS011;52211;50.154;8.682;2022-12-07T14:06:33;2.60;;;2.40;;
65567;SDS011;52211;50.154;8.682;2022-12-07T14:09:14;3.53;;;2.50;;
65567;SDS011;52211;50.154;8.682;2022-12-07T14:11:49;2.20;;;2.10;;
65567;SDS011;52211;50.154;8.682;2022-12-07T14:14:23;2.70;;;2.60;;
65567;SDS011;52211;50.154;8.682;2022-12-07T14:17:23;3.13;;;2.83;;
65567;SDS011;52211;50.154;8.682;2022-12-07T14:19:53;2.70;;;2.60;;
65567;SDS011;52211;50.154;8.682;2022-12-07T14:22:30;3.30;;;2.80;;
65567;SDS011;52211;50.154;8.682;2022-12-07T14:25:22;2.93;;;2.50;;
65567;SDS011;52211;50.154;8.682;2022-12-07T14:27:59;3.03;;;2.87;;
65567;SDS011;52211;50.154;8.682;2022-12-07T14:30:30;2.90;;;2.70;;
65567;SDS011;52211;50.154;8.682;2022-12-07T14:33:02;2.73;;;2.50;;
65567;SDS011;52211;50.154;8.682;2022-12-07T14:35:37;4.20;;;2.73;;
65567;SDS011;52211;50.154;8.682;2022-12-07T14:38:07;3.40;;;3.20;;
65567;SDS011;52211;50.154;8.682;2022-12-07T14:40:34;3.20;;;3.00;;
65567;SDS011;52211;50.154;8.682;2022-12-07T14:43:05;3.63;;;2.30;;
65567;SDS011;52211;50.154;8.682;2022-12-07T14:45:38;3.30;;;3.00;;
65567;SDS011;52211;50.154;8.682;2022-12-07T14:48:15;3.57;;;3.27;;
65567;SDS011;52211;50.154;8.682;2022-12-07T14:51:02;4.57;;;2.70;;
65567;SDS011;52211;50.154;8.682;2022-12-07T14:53:50;2.50;;;2.30;;
65567;SDS011;52211;50.154;8.682;2022-12-07T14:56:23;2.60;;;2.50;;
65567;SDS011;52211;50.154;8.682;2022-12-07T14:58:56;2.93;;;2.70;;
65567;SDS011;52211;50.154;8.682;2022-12-07T15:01:27;2.93;;;2.70;;
65567;SDS011;52211;50.154;8.682;2022-12-07T15:04:01;3.03;;;2.93;;
65567;SDS011;52211;50.154;8.682;2022-12-07T15:06:28;3.00;;;2.80;;
65567;SDS011;52211;50.154;8.682;2022-12-07T15:08:59;2.90;;;2.80;;
65567;SDS011;52211;50.154;8.682;2022-12-07T15:11:29;2.90;;;2.70;;
65567;SDS011;52211;50.154;8.682;2022-12-07T15:13:58;5.13;;;3.27;;
65567;SDS011;52211;50.154;8.682;2022-12-07T15:16:37;3.53;;;3.23;;
65567;SDS011;52211;50.154;8.682;2022-12-07T15:19:27;3.10;;;3.00;;
65567;SDS011;52211;50.154;8.682;2022-12-07T15:21:59;3.50;;;3.20;;
65567;SDS011;52211;50.154;8.682;2022-12-07T15:24:26;2.60;;;2.40;;
65567;SDS011;52211;50.154;8.682;2022-12-07T15:26:53;3.57;;;3.27;;
65567;SDS011;52211;50.154;8.682;2022-12-07T15:29:25;3.93;;;3.60;;
65567;SDS011;52211;50.154;8.682;2022-12-07T15:31:52;5.40;;;3.30;;
65567;SDS011;52211;50.154;8.682;2022-12-07T15:34:23;4.90;;;3.50;;
65567;SDS011;52211;50.154;8.682;2022-12-07T15:37:07;2.93;;;2.73;;
65567;SDS011;52211;50.154;8.682;2022-12-07T15:39:35;3.03;;;2.80;;
65567;SDS011;52211;50.154;8.682;2022-12-07T15:42:05;6.50;;;3.20;;
65567;SDS011;52211;50.154;8.682;2022-12-07T15:44:34;2.90;;;2.60;;
65567;SDS011;52211;50.154;8.682;2022-12-07T15:47:19;3.40;;;3.20;;
65567;SDS011;52211;50.154;8.682;2022-12-07T15:49:48;3.80;;;3.20;;
65567;SDS011;52211;50.154;8.682;2022-12-07T15:52:15;3.20;;;3.00;;
65567;SDS011;52211;50.154;8.682;2022-12-07T15:54:45;3.63;;;2.73;;
65567;SDS011;52211;50.154;8.682;2022-12-07T15:57:13;3.33;;;3.03;;
65567;SDS011;52211;50.154;8.682;2022-12-07T15:59:45;6.47;;;2.97;;
65567;SDS011;52211;50.154;8.682;2022-12-07T16:02:13;3.10;;;2.80;;
65567;SDS011;52211;50.154;8.682;2022-12-07T16:04:40;3.50;;;3.20;;
65567;SDS011;52211;50.154;8.682;2022-12-07T16:07:07;3.60;;;3.27;;
65567;SDS011;52211;50.154;8.682;2022-12-07T16:09:40;4.53;;;3.17;;
65567;SDS011;52211;50.154;8.682;2022-12-07T16:12:09;3.83;;;3.43;;
65567;SDS011;52211;50.154;8.682;2022-12-07T16:14:39;4.83;;;3.30;;
65567;SDS011;52211;50.154;8.682;2022-12-07T16:17:11;3.43;;;3.20;;
65567;SDS011;52211;50.154;8.682;2022-12-07T16:19:43;4.53;;;3.23;;
65567;SDS011;52211;50.154;8.682;2022-12-07T16:22:10;3.53;;;2.80;;
65567;SDS011;52211;50.154;8.682;2022-12-07T16:24:42;4.27;;;3.60;;
65567;SDS011;52211;50.154;8.682;2022-12-07T16:27:11;3.70;;;3.00;;
65567;SDS011;52211;50.154;8.682;2022-12-07T16:29:40;5.10;;;3.20;;
65567;SDS011;52211;50.154;8.682;2022-12-07T16:32:07;3.47;;;3.20;;
65567;SDS011;52211;50.154;8.682;2022-12-07T16:34:36;2.87;;;2.67;;
65567;SDS011;52211;50.154;8.682;2022-12-07T16:37:03;2.83;;;2.63;;
65567;SDS011;52211;50.154;8.682;2022-12-07T16:39:33;5.67;;;3.37;;
65567;SDS011;52211;50.154;8.682;2022-12-07T16:42:00;3.53;;;3.23;;
65567;SDS011;52211;50.154;8.682;2022-12-07T16:44:31;5.07;;;3.43;;
65567;SDS011;52211;50.154;8.682;2022-12-07T16:47:02;4.90;;;3.37;;
65567;SDS011;52211;50.154;8.682;2022-12-07T16:49:29;3.40;;;3.10;;
65567;SDS011;52211;50.154;8.682;2022-12-07T16:51:56;3.10;;;2.90;;
65567;SDS011;52211;50.154;8.682;2022-12-07T16:54:45;5.03;;;3.20;;
65567;SDS011;52211;50.154;8.682;2022-12-07T16:57:14;2.87;;;2.67;;
65567;SDS011;52211;50.154;8.682;2022-12-07T16:59:51;3.43;;;3.13;;
65567;SDS011;52211;50.154;8.682;2022-12-07T17:02:20;3.57;;;3.37;;
65567;SDS011;52211;50.154;8.682;2022-12-07T17:04:47;2.83;;;2.67;;
65567;SDS011;52211;50.154;8.682;2022-12-07T17:07:16;3.73;;;3.33;;
65567;SDS011;52211;50.154;8.682;2022-12-07T17:09:43;3.67;;;3.37;;
65567;SDS011;52211;50.154;8.682;2022-12-07T17:12:10;3.67;;;3.37;;
65567;SDS011;52211;50.154;8.682;2022-12-07T17:14:43;3.80;;;3.50;;
65567;SDS011;52211;50.154;8.682;2022-12-07T17:17:32;3.83;;;3.53;;
65567;SDS011;52211;50.154;8.682;2022-12-07T17:20:01;3.80;;;3.60;;
65567;SDS011;52211;50.154;8.682;2022-12-07T17:22:33;3.73;;;3.43;;
65567;SDS011;52211;50.154;8.682;2022-12-07T17:25:04;3.63;;;3.30;;
65567;SDS011;52211;50.154;8.682;2022-12-07T17:27:32;3.23;;;2.93;;
65567;SDS011;52211;50.154;8.682;2022-12-07T17:29:59;3.43;;;3.23;;
65567;SDS011;52211;50.154;8.682;2022-12-07T17:32:28;2.77;;;2.60;;
65567;SDS011;52211;50.154;8.682;2022-12-07T17:34:56;2.93;;;2.73;;
65567;SDS011;52211;50.154;8.682;2022-12-07T17:37:26;3.43;;;2.70;;
65567;SDS011;52211;50.154;8.682;2022-12-07T17:39:53;5.13;;;3.67;;
65567;SDS011;52211;50.154;8.682;2022-12-07T17:42:24;3.20;;;3.00;;
65567;SDS011;52211;50.154;8.682;2022-12-07T17:45:06;3.60;;;3.30;;
65567;SDS011;52211;50.154;8.682;2022-12-07T17:47:40;5.50;;;3.33;;
65567;SDS011;52211;50.154;8.682;2022-12-07T17:50:09;4.37;;;3.30;;
65567;SDS011;52211;50.154;8.682;2022-12-07T17:52:37;3.87;;;3.20;;